createdAt,value
2023-02-02T00:01:28.731Z,99.90
2023-02-02T00:03:56.725Z,99.90
2023-02-02T00:06:25.111Z,99.90
2023-02-02T00:08:51.917Z,99.90
2023-02-02T00:11:19.670Z,99.90
2023-02-02T00:13:46.929Z,99.90
2023-02-02T00:16:29.099Z,99.90
2023-02-02T00:19:01.831Z,99.90
2023-02-02T00:21:28.846Z,99.90
2023-02-02T00:23:55.835Z,99.90
2023-02-02T00:26:22.792Z,99.90
2023-02-02T00:28:49.655Z,99.90
2023-02-02T00:31:16.545Z,99.90
2023-02-02T00:33:47.740Z,99.90
2023-02-02T00:36:15.216Z,99.90
2023-02-02T00:38:41.872Z,99.90
2023-02-02T00:41:08.709Z,99.90
2023-02-02T00:43:35.575Z,99.90
2023-02-02T00:46:02.279Z,99.90
2023-02-02T00:48:28.971Z,99.90
2023-02-02T00:50:55.746Z,99.90
2023-02-02T00:53:22.414Z,99.90
2023-02-02T00:55:49.222Z,99.90
2023-02-02T00:58:15.881Z,99.90
2023-02-02T01:00:57.898Z,99.90
2023-02-02T01:03:24.613Z,99.90
2023-02-02T01:05:52.019Z,99.90
2023-02-02T01:08:18.729Z,99.90
2023-02-02T01:10:45.405Z,99.90
2023-02-02T01:13:12.140Z,99.90
2023-02-02T01:15:38.819Z,99.90
2023-02-02T01:18:05.621Z,99.90
2023-02-02T01:20:32.302Z,99.90
2023-02-02T01:22:58.986Z,99.90
2023-02-02T01:25:27.397Z,99.90
2023-02-02T01:27:54.108Z,99.90
2023-02-02T01:30:20.893Z,99.90
2023-02-02T01:32:47.609Z,99.90
2023-02-02T01:35:14.479Z,99.90
2023-02-02T01:37:41.136Z,99.90
2023-02-02T01:40:08.516Z,99.90
2023-02-02T01:42:35.248Z,99.90
2023-02-02T01:45:27.752Z,99.90
2023-02-02T01:47:58.576Z,99.90
2023-02-02T01:50:31.589Z,99.90
2023-02-02T01:53:00.823Z,99.90
2023-02-02T01:55:30.035Z,99.90
2023-02-02T01:58:10.507Z,99.90
2023-02-02T02:00:39.620Z,99.90
2023-02-02T02:03:13.857Z,99.90
2023-02-02T02:05:46.609Z,99.90
2023-02-02T02:08:27.047Z,99.90
2023-02-02T02:10:53.921Z,99.90
2023-02-02T02:13:43.986Z,99.90
2023-02-02T02:16:36.632Z,99.90
2023-02-02T02:20:01.012Z,99.90
2023-02-02T02:23:04.265Z,99.90
2023-02-02T02:26:08.236Z,99.90
2023-02-02T02:29:05.462Z,99.90
2023-02-02T02:31:46.840Z,99.90
2023-02-02T02:34:20.767Z,99.90
2023-02-02T02:36:54.462Z,99.90
2023-02-02T02:39:29.720Z,99.90
2023-02-02T02:42:01.723Z,99.90
2023-02-02T02:44:30.723Z,99.90
2023-02-02T02:46:57.907Z,99.90
2023-02-02T02:49:24.660Z,99.90
2023-02-02T02:51:53.808Z,99.90
2023-02-02T02:54:33.194Z,99.90
2023-02-02T02:57:41.033Z,99.90
2023-02-02T03:00:34.019Z,99.90
2023-02-02T03:03:05.608Z,99.90
2023-02-02T03:06:08.199Z,99.90
2023-02-02T03:08:43.976Z,99.90
2023-02-02T03:11:12.940Z,99.90
2023-02-02T03:13:41.412Z,99.90
2023-02-02T03:16:09.353Z,99.90
2023-02-02T03:18:36.494Z,99.90
2023-02-02T03:21:03.598Z,99.90
2023-02-02T03:23:30.289Z,99.90
2023-02-02T03:25:57.101Z,99.90
2023-02-02T03:28:25.029Z,99.90
2023-02-02T03:30:53.294Z,99.90
2023-02-02T03:33:20.604Z,99.90
2023-02-02T03:35:47.511Z,99.90
2023-02-02T03:38:14.257Z,99.90
2023-02-02T03:40:41.373Z,99.90
2023-02-02T03:43:08.181Z,99.90
2023-02-02T03:45:40.595Z,99.90
2023-02-02T03:48:07.529Z,99.90
2023-02-02T03:50:34.424Z,99.90
2023-02-02T03:53:01.069Z,99.90
2023-02-02T03:55:28.038Z,99.90
2023-02-02T03:57:54.896Z,99.90
2023-02-02T04:00:22.096Z,99.90
2023-02-02T04:02:48.907Z,99.90
2023-02-02T04:05:15.736Z,99.90
2023-02-02T04:07:42.461Z,99.90
2023-02-02T04:10:09.961Z,99.90
2023-02-02T04:12:36.667Z,99.90
2023-02-02T04:15:03.680Z,99.90
2023-02-02T04:17:30.281Z,99.90
2023-02-02T04:19:58.482Z,99.90
2023-02-02T04:22:26.257Z,99.90
2023-02-02T04:24:53.054Z,99.90
2023-02-02T04:27:20.011Z,99.90
2023-02-02T04:29:46.763Z,99.90
2023-02-02T04:32:16.199Z,99.90
2023-02-02T04:34:43.097Z,99.90
2023-02-02T04:37:11.008Z,99.90
2023-02-02T04:39:37.716Z,99.90
2023-02-02T04:42:04.812Z,99.90
2023-02-02T04:44:31.502Z,99.90
2023-02-02T04:46:58.175Z,99.90
2023-02-02T04:49:24.879Z,99.90
2023-02-02T04:51:51.595Z,99.90
2023-02-02T04:54:18.390Z,99.90
2023-02-02T04:56:45.089Z,99.90
2023-02-02T04:59:11.807Z,99.90
2023-02-02T05:01:38.609Z,99.90
2023-02-02T05:04:05.465Z,99.90
2023-02-02T05:06:32.197Z,99.90
2023-02-02T05:08:58.962Z,99.90
2023-02-02T05:11:25.750Z,99.90
2023-02-02T05:13:54.387Z,99.90
2023-02-02T05:16:23.046Z,99.90
2023-02-02T05:18:51.851Z,99.90
2023-02-02T05:21:19.421Z,99.90
2023-02-02T05:23:46.288Z,99.90
2023-02-02T05:26:17.089Z,99.90
2023-02-02T05:28:43.942Z,99.90
2023-02-02T05:31:10.765Z,99.90
2023-02-02T05:33:37.533Z,99.90
2023-02-02T05:36:04.877Z,99.90
2023-02-02T05:38:31.800Z,99.90
2023-02-02T05:40:58.618Z,99.90
2023-02-02T05:43:26.448Z,99.90
2023-02-02T05:45:53.534Z,99.90
2023-02-02T05:48:20.351Z,99.90
2023-02-02T05:51:11.852Z,99.90
2023-02-02T05:53:38.536Z,99.90
2023-02-02T05:56:05.571Z,99.90
2023-02-02T05:58:32.260Z,99.90
2023-02-02T06:00:58.921Z,99.90
2023-02-02T06:03:25.792Z,99.90
2023-02-02T06:05:52.637Z,99.90
2023-02-02T06:08:19.400Z,99.90
2023-02-02T06:10:46.092Z,99.90
2023-02-02T06:13:12.840Z,99.90
2023-02-02T06:15:39.590Z,99.90
2023-02-02T06:18:07.045Z,99.90
2023-02-02T06:20:33.708Z,99.90
2023-02-02T06:23:00.583Z,99.90
2023-02-02T06:25:27.982Z,99.90
2023-02-02T06:27:59.047Z,99.90
2023-02-02T06:30:26.539Z,99.90
2023-02-02T06:32:53.546Z,99.90
2023-02-02T06:35:20.247Z,99.90
2023-02-02T06:37:47.098Z,99.90
2023-02-02T06:40:13.848Z,99.90
2023-02-02T06:42:40.928Z,99.90
2023-02-02T06:45:08.316Z,99.90
2023-02-02T06:47:34.999Z,99.90
2023-02-02T06:50:01.705Z,99.90
2023-02-02T06:52:28.574Z,99.90
2023-02-02T06:54:55.394Z,99.90
2023-02-02T06:57:21.997Z,99.90
2023-02-02T06:59:48.699Z,99.90
2023-02-02T07:02:15.645Z,99.90
2023-02-02T07:04:42.484Z,99.90
2023-02-02T07:07:09.265Z,99.90
2023-02-02T07:09:36.100Z,99.90
2023-02-02T07:12:02.812Z,99.90
2023-02-02T07:14:29.593Z,99.90
2023-02-02T07:16:56.358Z,99.90
2023-02-02T07:19:23.237Z,99.90
2023-02-02T07:21:50.464Z,99.90
2023-02-02T07:24:17.309Z,99.90
2023-02-02T07:26:44.058Z,99.90
2023-02-02T07:29:16.169Z,99.90
2023-02-02T07:31:42.966Z,99.90
2023-02-02T07:34:09.834Z,99.90
2023-02-02T07:36:37.324Z,99.90
2023-02-02T07:39:07.734Z,99.90
2023-02-02T07:41:36.473Z,99.90
2023-02-02T07:44:04.940Z,99.90
2023-02-02T07:46:31.790Z,99.90
2023-02-02T07:48:58.708Z,99.90
2023-02-02T07:51:26.245Z,99.90
2023-02-02T07:53:54.779Z,99.90
2023-02-02T07:56:24.535Z,99.90
2023-02-02T07:58:55.927Z,99.90
2023-02-02T08:01:25.978Z,99.90
2023-02-02T08:03:54.106Z,99.90
2023-02-02T08:06:29.802Z,99.90
2023-02-02T08:08:56.942Z,99.90
2023-02-02T08:11:25.205Z,99.90
2023-02-02T08:13:54.247Z,99.90
2023-02-02T08:16:21.739Z,99.90
2023-02-02T08:18:49.035Z,99.90
2023-02-02T08:21:16.896Z,99.90
2023-02-02T08:23:44.452Z,99.90
2023-02-02T08:26:17.912Z,99.90
2023-02-02T08:28:48.065Z,99.90
2023-02-02T08:31:20.523Z,99.90
2023-02-02T08:33:47.704Z,99.90
2023-02-02T08:36:16.134Z,99.90
2023-02-02T08:38:43.086Z,99.90
2023-02-02T08:41:13.385Z,99.90
2023-02-02T08:43:41.116Z,99.90
2023-02-02T08:46:10.749Z,99.90
2023-02-02T08:48:38.208Z,99.90
2023-02-02T08:51:06.428Z,99.90
2023-02-02T08:53:33.740Z,99.90
2023-02-02T08:56:01.722Z,99.90
2023-02-02T08:58:29.083Z,99.90
2023-02-02T09:01:03.498Z,99.90
2023-02-02T09:03:31.079Z,99.90
2023-02-02T09:05:57.720Z,99.90
2023-02-02T09:08:24.417Z,99.90
2023-02-02T09:10:51.069Z,99.90
2023-02-02T09:13:17.794Z,99.90
2023-02-02T09:15:44.505Z,99.90
2023-02-02T09:18:11.191Z,99.90
2023-02-02T09:20:39.071Z,99.90
2023-02-02T09:23:05.734Z,99.90
2023-02-02T09:25:32.489Z,99.90
2023-02-02T09:27:59.234Z,99.90
2023-02-02T09:30:25.933Z,99.90
2023-02-02T09:32:52.669Z,99.90
2023-02-02T09:35:19.359Z,99.90
2023-02-02T09:37:46.103Z,99.90
2023-02-02T09:40:21.349Z,99.90
2023-02-02T09:43:13.970Z,99.90
2023-02-02T09:45:54.498Z,99.90
2023-02-02T09:48:30.857Z,99.90
2023-02-02T09:51:09.082Z,99.90
2023-02-02T09:53:55.091Z,99.90
2023-02-02T09:56:51.304Z,99.90
2023-02-02T09:59:29.307Z,99.90
2023-02-02T10:01:58.332Z,99.90
2023-02-02T10:04:54.178Z,99.90
2023-02-02T10:07:31.992Z,99.90
2023-02-02T10:10:05.182Z,99.90
2023-02-02T10:12:47.572Z,99.90
2023-02-02T10:15:30.595Z,99.90
2023-02-02T10:18:12.470Z,99.90
2023-02-02T10:20:56.425Z,99.90
2023-02-02T10:23:25.920Z,99.90
2023-02-02T10:26:04.550Z,99.90
2023-02-02T10:28:45.425Z,99.90
2023-02-02T10:31:47.314Z,99.90
2023-02-02T10:34:36.361Z,99.90
2023-02-02T10:37:16.648Z,99.90
2023-02-02T10:40:04.898Z,99.90
2023-02-02T10:43:06.577Z,99.90
2023-02-02T10:45:34.380Z,99.90
2023-02-02T10:48:01.429Z,99.90
2023-02-02T10:50:28.697Z,99.90
2023-02-02T10:53:01.645Z,99.90
2023-02-02T10:55:33.964Z,99.90
2023-02-02T10:58:05.014Z,99.90
2023-02-02T11:00:53.754Z,99.90
2023-02-02T11:03:28.391Z,99.90
2023-02-02T11:06:15.363Z,99.90
2023-02-02T11:08:48.090Z,99.90
2023-02-02T11:11:25.235Z,99.90
2023-02-02T11:14:18.829Z,99.90
2023-02-02T11:16:46.369Z,99.90
2023-02-02T11:19:21.583Z,99.90
2023-02-02T11:21:54.177Z,99.90
2023-02-02T11:24:36.717Z,99.90
2023-02-02T11:27:12.299Z,99.90
2023-02-02T11:29:38.937Z,99.90
2023-02-02T11:32:21.243Z,99.90
2023-02-02T11:34:48.100Z,99.90
2023-02-02T11:37:21.373Z,99.90
2023-02-02T11:39:48.044Z,99.90
2023-02-02T11:42:23.195Z,99.90
2023-02-02T11:44:58.187Z,99.90
2023-02-02T11:47:28.644Z,99.90
2023-02-02T11:49:57.922Z,99.90
2023-02-02T11:52:30.635Z,99.90
2023-02-02T11:55:01.797Z,99.90
2023-02-02T11:57:29.902Z,99.90
2023-02-02T12:00:17.470Z,99.90
2023-02-02T12:02:49.415Z,99.90
2023-02-02T12:05:23.537Z,99.90
2023-02-02T12:07:50.376Z,99.90
2023-02-02T12:10:20.526Z,99.90
2023-02-02T12:13:08.367Z,99.90
2023-02-02T12:15:47.079Z,99.90
2023-02-02T12:18:55.587Z,99.90
2023-02-02T12:21:22.227Z,99.90
2023-02-02T12:24:10.549Z,99.90
2023-02-02T12:26:41.390Z,99.90
2023-02-02T12:29:46.177Z,99.90
2023-02-02T12:32:34.851Z,99.90
2023-02-02T12:35:38.992Z,99.90
2023-02-02T12:38:30.282Z,99.90
2023-02-02T12:41:35.954Z,99.90
2023-02-02T12:44:14.074Z,99.90
2023-02-02T12:47:12.426Z,99.90
2023-02-02T12:50:07.392Z,99.90
2023-02-02T12:52:50.714Z,99.90
2023-02-02T12:55:39.814Z,99.90
2023-02-02T12:58:18.563Z,99.90
2023-02-02T13:01:19.180Z,99.90
2023-02-02T13:03:57.848Z,99.90
2023-02-02T13:06:52.397Z,99.90
2023-02-02T13:09:48.491Z,99.90
2023-02-02T13:12:18.715Z,99.90
2023-02-02T13:14:59.140Z,99.90
2023-02-02T13:17:29.422Z,99.90
2023-02-02T13:20:02.082Z,99.90
2023-02-02T13:22:38.996Z,99.90
2023-02-02T13:25:09.482Z,99.90
2023-02-02T13:27:39.161Z,99.90
2023-02-02T13:30:20.764Z,99.90
2023-02-02T13:32:50.808Z,99.90
2023-02-02T13:35:36.880Z,99.90
2023-02-02T13:38:28.759Z,99.90
2023-02-02T13:40:59.219Z,99.90
2023-02-02T13:43:52.788Z,99.90
2023-02-02T13:46:57.137Z,99.90
2023-02-02T13:49:36.139Z,99.90
2023-02-02T13:52:21.447Z,99.90
2023-02-02T13:55:26.671Z,99.90
2023-02-02T13:58:18.641Z,99.90
2023-02-02T14:00:51.165Z,99.90
2023-02-02T14:03:40.500Z,99.90
2023-02-02T14:06:17.319Z,99.90
2023-02-02T14:09:02.479Z,98.60
2023-02-02T14:11:33.176Z,99.00
2023-02-02T14:14:33.261Z,91.50
2023-02-02T14:17:04.491Z,91.20
2023-02-02T14:19:31.144Z,91.40
2023-02-02T14:22:01.170Z,83.80
2023-02-02T14:24:30.558Z,86.60
2023-02-02T14:26:58.544Z,82.10
2023-02-02T14:29:31.432Z,77.80
2023-02-02T14:32:07.370Z,75.00
2023-02-02T14:34:39.386Z,70.60
2023-02-02T14:37:24.600Z,76.40
2023-02-02T14:39:58.441Z,74.70
2023-02-02T14:43:14.943Z,75.70
2023-02-02T14:45:43.127Z,61.50
2023-02-02T14:48:09.851Z,66.30
2023-02-02T14:50:39.290Z,57.10
2023-02-02T14:53:20.748Z,62.40
2023-02-02T14:56:10.988Z,57.40
2023-02-02T14:58:43.308Z,68.60
2023-02-02T15:01:22.895Z,71.90
2023-02-02T15:04:38.177Z,76.70
2023-02-02T15:07:23.077Z,82.70
2023-02-02T15:09:56.422Z,91.40
2023-02-02T15:12:39.652Z,95.00
2023-02-02T15:15:17.622Z,99.90
2023-02-02T15:18:04.565Z,99.90
2023-02-02T15:20:40.111Z,99.90
2023-02-02T15:23:36.060Z,99.90
2023-02-02T15:26:27.363Z,99.90
2023-02-02T15:29:08.092Z,99.90
2023-02-02T15:31:52.111Z,99.90
2023-02-02T15:34:22.296Z,99.90
2023-02-02T15:36:58.411Z,99.90
2023-02-02T15:39:30.938Z,99.90
2023-02-02T15:42:17.799Z,99.90
2023-02-02T15:44:45.515Z,99.90
2023-02-02T15:47:23.119Z,99.90
2023-02-02T15:49:50.466Z,99.90
2023-02-02T15:52:46.562Z,99.90
2023-02-02T15:55:31.666Z,99.90
2023-02-02T15:57:58.590Z,99.90
2023-02-02T16:00:35.790Z,99.90
2023-02-02T16:03:08.054Z,99.90
2023-02-02T16:05:34.682Z,99.90
2023-02-02T16:08:06.524Z,99.90
2023-02-02T16:10:34.310Z,99.90
2023-02-02T16:13:01.595Z,99.90
2023-02-02T16:15:31.732Z,99.90
2023-02-02T16:18:10.592Z,99.90
2023-02-02T16:20:39.042Z,99.90
2023-02-02T16:23:11.403Z,99.90
2023-02-02T16:25:49.852Z,99.90
2023-02-02T16:28:22.053Z,99.90
2023-02-02T16:30:51.691Z,99.90
2023-02-02T16:33:43.882Z,99.90
2023-02-02T16:36:24.559Z,99.90
2023-02-02T16:38:53.109Z,99.90
2023-02-02T16:41:35.356Z,99.90
2023-02-02T16:44:39.245Z,99.90
2023-02-02T16:47:25.975Z,99.90
2023-02-02T16:50:08.724Z,99.90
2023-02-02T16:52:50.270Z,99.90
2023-02-02T16:55:19.104Z,99.90
2023-02-02T16:57:47.281Z,99.90
2023-02-02T17:00:29.441Z,99.90
2023-02-02T17:03:09.689Z,99.90
2023-02-02T17:05:53.558Z,99.90
2023-02-02T17:08:36.521Z,99.90
2023-02-02T17:11:07.008Z,99.90
2023-02-02T17:13:36.546Z,99.90
2023-02-02T17:16:03.671Z,99.90
2023-02-02T17:18:30.409Z,99.90
2023-02-02T17:21:03.639Z,99.90
2023-02-02T17:23:32.316Z,99.90
2023-02-02T17:25:59.247Z,99.90
2023-02-02T17:28:27.057Z,99.90
2023-02-02T17:31:08.003Z,99.90
2023-02-02T17:33:36.238Z,99.90
2023-02-02T17:36:04.668Z,99.90
2023-02-02T17:38:32.583Z,99.90
2023-02-02T17:41:03.242Z,99.90
2023-02-02T17:43:30.915Z,99.90
2023-02-02T17:45:58.094Z,99.90
2023-02-02T17:48:25.343Z,99.90
2023-02-02T17:50:52.034Z,99.90
2023-02-02T17:53:25.490Z,99.90
2023-02-02T17:55:52.288Z,99.90
2023-02-02T17:58:19.419Z,99.90
2023-02-02T18:00:48.930Z,99.90
2023-02-02T18:03:35.452Z,99.90
2023-02-02T18:06:02.414Z,99.90
2023-02-02T18:08:30.802Z,99.90
2023-02-02T18:10:59.485Z,99.90
2023-02-02T18:13:26.923Z,99.90
2023-02-02T18:15:55.882Z,99.90
2023-02-02T18:18:23.633Z,99.90
2023-02-02T18:20:50.518Z,99.90
2023-02-02T18:23:18.719Z,99.90
2023-02-02T18:25:45.565Z,99.90
2023-02-02T18:28:16.580Z,99.90
2023-02-02T18:30:43.812Z,99.90
2023-02-02T18:33:11.968Z,99.90
2023-02-02T18:35:43.365Z,99.90
2023-02-02T18:38:10.555Z,99.90
2023-02-02T18:40:37.881Z,99.90
2023-02-02T18:43:04.580Z,99.90
2023-02-02T18:45:31.268Z,99.90
2023-02-02T18:47:57.934Z,99.90
2023-02-02T18:50:24.672Z,99.90
2023-02-02T18:52:51.417Z,99.90
2023-02-02T18:55:18.189Z,99.90
2023-02-02T18:57:44.988Z,99.90
2023-02-02T19:00:12.331Z,99.90
2023-02-02T19:02:39.005Z,99.90
2023-02-02T19:05:24.780Z,99.90
2023-02-02T19:07:54.635Z,99.90
2023-02-02T19:10:23.426Z,99.90
2023-02-02T19:12:57.087Z,99.90
2023-02-02T19:15:25.955Z,99.90
2023-02-02T19:17:55.029Z,99.90
2023-02-02T19:20:24.349Z,99.90
2023-02-02T19:23:06.559Z,99.90
2023-02-02T19:25:33.532Z,99.90
2023-02-02T19:28:28.082Z,99.90
2023-02-02T19:30:57.763Z,99.90
2023-02-02T19:33:43.348Z,99.90
2023-02-02T19:36:19.400Z,99.90
2023-02-02T19:38:47.010Z,99.90
2023-02-02T19:41:21.116Z,99.90
2023-02-02T19:43:48.773Z,99.90
2023-02-02T19:46:22.798Z,99.90
2023-02-02T19:48:51.729Z,99.90
2023-02-02T19:51:48.521Z,99.90
2023-02-02T19:54:23.731Z,99.90
2023-02-02T19:56:59.696Z,99.90
2023-02-02T19:59:32.186Z,99.90
2023-02-02T20:02:20.437Z,99.90
2023-02-02T20:04:48.125Z,99.90
2023-02-02T20:07:15.273Z,99.90
2023-02-02T20:09:43.729Z,99.90
2023-02-02T20:12:24.444Z,99.90
2023-02-02T20:14:51.196Z,99.90
2023-02-02T20:17:29.013Z,99.90
2023-02-02T20:19:56.055Z,99.90
2023-02-02T20:22:28.352Z,99.90
2023-02-02T20:24:57.236Z,99.90
2023-02-02T20:27:26.850Z,99.90
2023-02-02T20:29:56.520Z,99.90
2023-02-02T20:32:36.941Z,99.90
2023-02-02T20:35:20.874Z,99.90
2023-02-02T20:37:47.668Z,99.90
2023-02-02T20:40:26.569Z,99.90
2023-02-02T20:42:53.927Z,99.90
2023-02-02T20:45:21.945Z,99.90
2023-02-02T20:47:49.785Z,99.90
2023-02-02T20:50:19.141Z,99.90
2023-02-02T20:52:45.873Z,99.90
2023-02-02T20:55:13.103Z,99.90
2023-02-02T20:57:40.369Z,99.90
2023-02-02T21:00:10.406Z,99.90
2023-02-02T21:02:37.144Z,99.90
2023-02-02T21:05:04.602Z,99.90
2023-02-02T21:07:31.523Z,99.90
2023-02-02T21:09:58.260Z,99.90
2023-02-02T21:12:25.759Z,99.90
2023-02-02T21:14:55.756Z,99.90
2023-02-02T21:17:22.834Z,99.90
2023-02-02T21:19:49.980Z,99.90
2023-02-02T21:22:16.705Z,99.90
2023-02-02T21:24:43.356Z,99.90
2023-02-02T21:27:10.253Z,99.90
2023-02-02T21:29:37.392Z,99.90
2023-02-02T21:32:04.634Z,99.90
2023-02-02T21:34:32.123Z,99.90
2023-02-02T21:36:59.409Z,99.90
2023-02-02T21:39:36.925Z,99.90
2023-02-02T21:42:09.710Z,99.90
2023-02-02T21:44:52.443Z,99.90
2023-02-02T21:47:22.114Z,99.90
2023-02-02T21:49:48.958Z,99.90
2023-02-02T21:52:17.745Z,99.90
2023-02-02T21:54:45.249Z,99.90
2023-02-02T21:57:24.569Z,99.90
2023-02-02T21:59:55.354Z,99.90
2023-02-02T22:02:42.584Z,99.90
2023-02-02T22:05:18.337Z,99.90
2023-02-02T22:07:46.399Z,99.90
2023-02-02T22:10:32.712Z,99.90
2023-02-02T22:12:59.400Z,99.90
2023-02-02T22:15:33.103Z,99.90
2023-02-02T22:18:02.219Z,99.90
2023-02-02T22:20:34.138Z,99.90
2023-02-02T22:23:03.150Z,99.90
2023-02-02T22:25:35.680Z,99.90
2023-02-02T22:28:13.404Z,99.90
2023-02-02T22:30:41.514Z,99.90
2023-02-02T22:33:13.013Z,99.90
2023-02-02T22:35:41.078Z,99.90
2023-02-02T22:38:08.283Z,99.90
2023-02-02T22:40:35.367Z,99.90
2023-02-02T22:43:05.632Z,99.90
2023-02-02T22:45:32.544Z,99.90
2023-02-02T22:47:59.350Z,99.90
2023-02-02T22:50:29.101Z,99.90
2023-02-02T22:52:56.309Z,99.90
2023-02-02T22:55:23.041Z,99.90
2023-02-02T22:57:50.057Z,99.90
2023-02-02T23:00:22.533Z,99.90
2023-02-02T23:02:49.488Z,99.90
2023-02-02T23:05:17.454Z,99.90
2023-02-02T23:07:45.283Z,99.90
2023-02-02T23:10:14.843Z,99.90
2023-02-02T23:12:42.778Z,99.90
2023-02-02T23:15:10.973Z,99.90
2023-02-02T23:17:37.868Z,99.90
2023-02-02T23:20:11.161Z,99.90
2023-02-02T23:22:37.888Z,99.90
2023-02-02T23:25:04.962Z,99.90
2023-02-02T23:27:31.818Z,99.90
2023-02-02T23:29:58.504Z,99.90
2023-02-02T23:32:25.164Z,99.90
2023-02-02T23:34:51.874Z,99.90
2023-02-02T23:37:18.818Z,99.90
2023-02-02T23:39:45.595Z,99.90
2023-02-02T23:42:12.449Z,99.90
2023-02-02T23:44:39.087Z,99.90
2023-02-02T23:47:06.159Z,99.90
2023-02-02T23:49:33.499Z,99.90
2023-02-02T23:52:00.533Z,99.90
2023-02-02T23:54:28.421Z,99.90
2023-02-02T23:56:56.260Z,99.90
2023-02-02T23:59:23.010Z,99.90
